Izmail, Ukraine
Current Conditions -  °F | °C
As of 12:30 PM on Saturday 25 Oct 2014 (Local Time) from LRTC Reporting Station
Broken Clouds Broken Clouds  
Wind Chill: 26°   Ceiling: 2600
Heat Index: 37°   Visibility: 6mi
Dew Point: 34°   Wind: 24mph
Humidity: 87%   Direction: 10°N
Pressure: 30.3"   Gusts: NA
Location:  45.35°N, 28.85°E
Report Text: LRTC 250930Z 01021KT 9999 FEW012 SCT017 BKN026 03/01 Q1026
Loading
Personal Weather Stations






























Interactive Weather Map
Tropical Storm Tracking
New forecast layout! Learn more

10-Day Weather Forecast

Advertisements
Track Severe Weather on mobile